sensor_id;sensor_type;location;lat;lon;timestamp;temperature;humidity
80779;SHT30;70170;47.856;10.956;2023-07-31T00:00:27;14.56;86.38
80779;SHT30;70170;47.856;10.956;2023-07-31T00:02:52;14.53;86.47
80779;SHT30;70170;47.856;10.956;2023-07-31T00:05:17;14.52;86.51
80779;SHT30;70170;47.856;10.956;2023-07-31T00:07:43;14.49;86.45
80779;SHT30;70170;47.856;10.956;2023-07-31T00:10:08;14.46;87.15
80779;SHT30;70170;47.856;10.956;2023-07-31T00:12:34;14.32;87.60
80779;SHT30;70170;47.856;10.956;2023-07-31T00:14:59;14.26;87.57
80779;SHT30;70170;47.856;10.956;2023-07-31T00:17:24;14.25;88.40
80779;SHT30;70170;47.856;10.956;2023-07-31T00:19:50;14.14;88.33
80779;SHT30;70170;47.856;10.956;2023-07-31T00:22:16;14.15;87.51
80779;SHT30;70170;47.856;10.956;2023-07-31T00:24:41;14.21;87.58
80779;SHT30;70170;47.856;10.956;2023-07-31T00:27:06;14.16;87.67
80779;SHT30;70170;47.856;10.956;2023-07-31T00:29:32;14.09;87.95
80779;SHT30;70170;47.856;10.956;2023-07-31T00:31:57;14.05;88.06
80779;SHT30;70170;47.856;10.956;2023-07-31T00:34:22;13.98;88.54
80779;SHT30;70170;47.856;10.956;2023-07-31T00:36:47;13.92;88.49
80779;SHT30;70170;47.856;10.956;2023-07-31T00:39:13;13.82;88.96
80779;SHT30;70170;47.856;10.956;2023-07-31T00:41:38;13.73;89.46
80779;SHT30;70170;47.856;10.956;2023-07-31T00:44:04;13.73;89.02
80779;SHT30;70170;47.856;10.956;2023-07-31T00:46:29;13.82;89.00
80779;SHT30;70170;47.856;10.956;2023-07-31T00:48:54;13.88;89.01
80779;SHT30;70170;47.856;10.956;2023-07-31T00:51:20;13.84;89.03
80779;SHT30;70170;47.856;10.956;2023-07-31T00:53:47;13.71;89.40
80779;SHT30;70170;47.856;10.956;2023-07-31T00:56:12;13.66;89.84
80779;SHT30;70170;47.856;10.956;2023-07-31T00:58:37;13.62;89.65
80779;SHT30;70170;47.856;10.956;2023-07-31T01:01:03;13.47;90.33
80779;SHT30;70170;47.856;10.956;2023-07-31T01:03:28;13.35;90.98
80779;SHT30;70170;47.856;10.956;2023-07-31T01:06:18;13.29;91.71
80779;SHT30;70170;47.856;10.956;2023-07-31T01:09:01;13.23;92.26
80779;SHT30;70170;47.856;10.956;2023-07-31T01:11:30;13.32;92.15
80779;SHT30;70170;47.856;10.956;2023-07-31T01:13:56;13.25;91.94
80779;SHT30;70170;47.856;10.956;2023-07-31T01:16:22;13.39;92.09
80779;SHT30;70170;47.856;10.956;2023-07-31T01:18:47;13.39;92.25
80779;SHT30;70170;47.856;10.956;2023-07-31T01:27:10;13.52;92.21
80779;SHT30;70170;47.856;10.956;2023-07-31T01:29:47;13.59;91.82
80779;SHT30;70170;47.856;10.956;2023-07-31T01:32:14;13.60;91.77
80779;SHT30;70170;47.856;10.956;2023-07-31T01:34:43;13.59;91.41
80779;SHT30;70170;47.856;10.956;2023-07-31T01:37:09;13.60;92.10
80779;SHT30;70170;47.856;10.956;2023-07-31T01:39:34;13.67;91.26
80779;SHT30;70170;47.856;10.956;2023-07-31T01:41:59;13.66;90.75
80779;SHT30;70170;47.856;10.956;2023-07-31T01:44:25;13.73;90.96
80779;SHT30;70170;47.856;10.956;2023-07-31T01:46:50;13.71;90.39
80779;SHT30;70170;47.856;10.956;2023-07-31T01:49:15;13.75;90.08
80779;SHT30;70170;47.856;10.956;2023-07-31T01:51:41;13.71;90.64
80779;SHT30;70170;47.856;10.956;2023-07-31T01:54:06;13.69;90.99
80779;SHT30;70170;47.856;10.956;2023-07-31T01:56:31;13.67;90.58
80779;SHT30;70170;47.856;10.956;2023-07-31T01:58:57;13.67;91.29
80779;SHT30;70170;47.856;10.956;2023-07-31T02:01:22;13.66;92.58
80779;SHT30;70170;47.856;10.956;2023-07-31T02:03:47;13.59;93.13
80779;SHT30;70170;47.856;10.956;2023-07-31T02:06:13;13.59;93.41
80779;SHT30;70170;47.856;10.956;2023-07-31T02:08:38;13.54;92.67
80779;SHT30;70170;47.856;10.956;2023-07-31T02:11:03;13.49;92.91
80779;SHT30;70170;47.856;10.956;2023-07-31T02:13:29;13.42;92.62
80779;SHT30;70170;47.856;10.956;2023-07-31T02:15:54;13.38;92.42
80779;SHT30;70170;47.856;10.956;2023-07-31T02:18:19;13.36;93.37
80779;SHT30;70170;47.856;10.956;2023-07-31T02:20:51;13.29;93.04
80779;SHT30;70170;47.856;10.956;2023-07-31T02:23:19;13.26;92.96
80779;SHT30;70170;47.856;10.956;2023-07-31T02:25:45;13.25;92.93
80779;SHT30;70170;47.856;10.956;2023-07-31T02:28:11;13.22;93.24
80779;SHT30;70170;47.856;10.956;2023-07-31T02:30:36;13.32;91.86
80779;SHT30;70170;47.856;10.956;2023-07-31T02:33:02;13.35;91.79
80779;SHT30;70170;47.856;10.956;2023-07-31T02:35:27;13.35;91.89
80779;SHT30;70170;47.856;10.956;2023-07-31T02:37:52;13.26;91.98
80779;SHT30;70170;47.856;10.956;2023-07-31T02:40:18;13.16;92.48
80779;SHT30;70170;47.856;10.956;2023-07-31T02:42:43;13.08;92.41
80779;SHT30;70170;47.856;10.956;2023-07-31T02:45:08;13.05;93.15
80779;SHT30;70170;47.856;10.956;2023-07-31T02:47:34;13.01;93.25
80779;SHT30;70170;47.856;10.956;2023-07-31T02:49:59;12.92;93.19
80779;SHT30;70170;47.856;10.956;2023-07-31T02:52:25;12.81;93.65
80779;SHT30;70170;47.856;10.956;2023-07-31T02:54:50;12.65;94.69
80779;SHT30;70170;47.856;10.956;2023-07-31T02:57:16;12.49;95.03
80779;SHT30;70170;47.856;10.956;2023-07-31T02:59:41;12.32;95.86
80779;SHT30;70170;47.856;10.956;2023-07-31T03:02:06;12.24;96.05
80779;SHT30;70170;47.856;10.956;2023-07-31T03:04:32;12.12;96.21
80779;SHT30;70170;47.856;10.956;2023-07-31T03:06:57;12.04;96.48
80779;SHT30;70170;47.856;10.956;2023-07-31T03:09:22;11.94;96.66
80779;SHT30;70170;47.856;10.956;2023-07-31T03:11:48;11.89;96.89
80779;SHT30;70170;47.856;10.956;2023-07-31T03:14:16;11.94;96.55
80779;SHT30;70170;47.856;10.956;2023-07-31T03:16:45;11.80;96.65
80779;SHT30;70170;47.856;10.956;2023-07-31T03:19:10;11.71;97.33
80779;SHT30;70170;47.856;10.956;2023-07-31T03:21:35;11.57;97.79
80779;SHT30;70170;47.856;10.956;2023-07-31T03:24:01;11.50;98.17
80779;SHT30;70170;47.856;10.956;2023-07-31T03:26:26;11.37;98.59
80779;SHT30;70170;47.856;10.956;2023-07-31T03:28:51;11.33;99.05
80779;SHT30;70170;47.856;10.956;2023-07-31T03:31:16;11.26;99.28
80779;SHT30;70170;47.856;10.956;2023-07-31T03:33:42;11.26;99.84
80779;SHT30;70170;47.856;10.956;2023-07-31T03:36:07;11.20;99.81
80779;SHT30;70170;47.856;10.956;2023-07-31T03:38:33;11.09;99.86
80779;SHT30;70170;47.856;10.956;2023-07-31T03:40:59;11.02;99.99
80779;SHT30;70170;47.856;10.956;2023-07-31T03:43:24;11.02;99.99
80779;SHT30;70170;47.856;10.956;2023-07-31T03:45:50;11.01;99.99
80779;SHT30;70170;47.856;10.956;2023-07-31T03:48:15;10.97;99.99
80779;SHT30;70170;47.856;10.956;2023-07-31T03:50:41;11.11;99.99
80779;SHT30;70170;47.856;10.956;2023-07-31T03:53:06;11.11;99.99
80779;SHT30;70170;47.856;10.956;2023-07-31T03:55:32;11.16;99.99
80779;SHT30;70170;47.856;10.956;2023-07-31T03:57:57;11.16;99.99
80779;SHT30;70170;47.856;10.956;2023-07-31T04:00:23;11.18;99.99
80779;SHT30;70170;47.856;10.956;2023-07-31T04:02:48;11.16;99.99
80779;SHT30;70170;47.856;10.956;2023-07-31T04:05:13;11.22;99.99
80779;SHT30;70170;47.856;10.956;2023-07-31T04:07:39;11.26;99.99
80779;SHT30;70170;47.856;10.956;2023-07-31T04:10:04;11.30;99.99
80779;SHT30;70170;47.856;10.956;2023-07-31T04:12:29;11.33;99.99
80779;SHT30;70170;47.856;10.956;2023-07-31T04:14:55;11.32;99.99
80779;SHT30;70170;47.856;10.956;2023-07-31T04:17:20;11.34;99.99
80779;SHT30;70170;47.856;10.956;2023-07-31T04:19:46;11.33;99.99
80779;SHT30;70170;47.856;10.956;2023-07-31T04:22:11;11.27;99.99
80779;SHT30;70170;47.856;10.956;2023-07-31T04:24:36;11.27;99.99
80779;SHT30;70170;47.856;10.956;2023-07-31T04:27:02;11.47;99.99
80779;SHT30;70170;47.856;10.956;2023-07-31T04:29:27;11.71;99.30
80779;SHT30;70170;47.856;10.956;2023-07-31T04:31:52;11.66;99.24
80779;SHT30;70170;47.856;10.956;2023-07-31T04:34:18;11.88;98.69
80779;SHT30;70170;47.856;10.956;2023-07-31T04:36:43;12.37;97.16
80779;SHT30;70170;47.856;10.956;2023-07-31T04:39:08;12.85;95.72
80779;SHT30;70170;47.856;10.956;2023-07-31T04:41:34;13.27;94.19
80779;SHT30;70170;47.856;10.956;2023-07-31T04:43:59;13.56;92.62
80779;SHT30;70170;47.856;10.956;2023-07-31T04:46:24;13.94;91.10
80779;SHT30;70170;47.856;10.956;2023-07-31T04:48:50;14.32;89.70
80779;SHT30;70170;47.856;10.956;2023-07-31T04:51:15;14.69;87.87
80779;SHT30;70170;47.856;10.956;2023-07-31T04:53:41;15.09;86.18
80779;SHT30;70170;47.856;10.956;2023-07-31T04:56:06;15.29;85.52
80779;SHT30;70170;47.856;10.956;2023-07-31T04:58:32;15.34;85.22
80779;SHT30;70170;47.856;10.956;2023-07-31T05:00:57;15.36;85.18
80779;SHT30;70170;47.856;10.956;2023-07-31T05:03:22;15.46;85.28
80779;SHT30;70170;47.856;10.956;2023-07-31T05:05:47;15.64;84.05
80779;SHT30;70170;47.856;10.956;2023-07-31T05:08:13;15.77;83.32
80779;SHT30;70170;47.856;10.956;2023-07-31T05:10:38;15.84;83.03
80779;SHT30;70170;47.856;10.956;2023-07-31T05:13:03;15.80;83.06
80779;SHT30;70170;47.856;10.956;2023-07-31T05:15:29;15.74;83.55
80779;SHT30;70170;47.856;10.956;2023-07-31T05:17:54;15.89;82.62
80779;SHT30;70170;47.856;10.956;2023-07-31T05:20:20;16.05;82.24
80779;SHT30;70170;47.856;10.956;2023-07-31T05:22:46;16.21;81.42
80779;SHT30;70170;47.856;10.956;2023-07-31T05:25:11;16.41;80.88
80779;SHT30;70170;47.856;10.956;2023-07-31T05:27:37;16.48;80.63
80779;SHT30;70170;47.856;10.956;2023-07-31T05:30:03;16.63;79.92
80779;SHT30;70170;47.856;10.956;2023-07-31T05:32:28;16.72;79.61
80779;SHT30;70170;47.856;10.956;2023-07-31T05:34:53;16.76;79.16
80779;SHT30;70170;47.856;10.956;2023-07-31T05:37:19;16.88;79.08
80779;SHT30;70170;47.856;10.956;2023-07-31T05:39:44;17.00;78.82
80779;SHT30;70170;47.856;10.956;2023-07-31T05:42:10;17.11;78.83
80779;SHT30;70170;47.856;10.956;2023-07-31T05:44:35;17.27;78.21
80779;SHT30;70170;47.856;10.956;2023-07-31T05:47:00;17.31;77.84
80779;SHT30;70170;47.856;10.956;2023-07-31T05:49:26;17.57;77.55
80779;SHT30;70170;47.856;10.956;2023-07-31T05:51:51;17.50;76.97
80779;SHT30;70170;47.856;10.956;2023-07-31T05:54:16;17.63;76.75
80779;SHT30;70170;47.856;10.956;2023-07-31T05:56:42;17.84;76.90
80779;SHT30;70170;47.856;10.956;2023-07-31T05:59:09;17.96;75.78
80779;SHT30;70170;47.856;10.956;2023-07-31T06:01:38;18.29;75.26
80779;SHT30;70170;47.856;10.956;2023-07-31T06:04:03;18.53;74.43
80779;SHT30;70170;47.856;10.956;2023-07-31T06:06:28;18.52;73.82
80779;SHT30;70170;47.856;10.956;2023-07-31T06:08:54;18.45;73.85
80779;SHT30;70170;47.856;10.956;2023-07-31T06:11:20;17.98;74.68
80779;SHT30;70170;47.856;10.956;2023-07-31T06:13:45;17.79;75.59
80779;SHT30;70170;47.856;10.956;2023-07-31T06:16:13;17.77;76.23
80779;SHT30;70170;47.856;10.956;2023-07-31T06:18:38;17.76;76.73
80779;SHT30;70170;47.856;10.956;2023-07-31T06:21:03;17.69;77.54
80779;SHT30;70170;47.856;10.956;2023-07-31T06:23:29;17.70;77.24
80779;SHT30;70170;47.856;10.956;2023-07-31T06:25:54;17.65;76.92
80779;SHT30;70170;47.856;10.956;2023-07-31T06:28:19;17.62;77.25
80779;SHT30;70170;47.856;10.956;2023-07-31T06:30:45;17.31;77.74
80779;SHT30;70170;47.856;10.956;2023-07-31T06:33:10;17.12;78.20
80779;SHT30;70170;47.856;10.956;2023-07-31T06:35:35;17.25;78.06
80779;SHT30;70170;47.856;10.956;2023-07-31T06:38:00;17.31;78.25
80779;SHT30;70170;47.856;10.956;2023-07-31T06:40:27;17.28;78.80
80779;SHT30;70170;47.856;10.956;2023-07-31T06:42:52;17.43;78.55
80779;SHT30;70170;47.856;10.956;2023-07-31T06:45:18;17.34;77.95
80779;SHT30;70170;47.856;10.956;2023-07-31T06:47:43;17.56;78.02
80779;SHT30;70170;47.856;10.956;2023-07-31T06:50:08;17.62;77.84
80779;SHT30;70170;47.856;10.956;2023-07-31T06:52:34;17.67;77.48
80779;SHT30;70170;47.856;10.956;2023-07-31T06:55:04;17.82;77.61
80779;SHT30;70170;47.856;10.956;2023-07-31T06:57:40;17.80;77.90
80779;SHT30;70170;47.856;10.956;2023-07-31T07:00:06;17.77;77.55
80779;SHT30;70170;47.856;10.956;2023-07-31T07:02:32;17.90;77.38
80779;SHT30;70170;47.856;10.956;2023-07-31T07:04:57;18.21;76.72
80779;SHT30;70170;47.856;10.956;2023-07-31T07:07:22;18.17;76.56
80779;SHT30;70170;47.856;10.956;2023-07-31T07:09:47;18.38;75.94
80779;SHT30;70170;47.856;10.956;2023-07-31T07:12:13;18.82;75.43
80779;SHT30;70170;47.856;10.956;2023-07-31T07:14:38;18.77;74.91
80779;SHT30;70170;47.856;10.956;2023-07-31T07:17:03;18.56;75.39
80779;SHT30;70170;47.856;10.956;2023-07-31T07:19:29;18.28;74.89
80779;SHT30;70170;47.856;10.956;2023-07-31T07:21:54;18.05;74.96
80779;SHT30;70170;47.856;10.956;2023-07-31T07:24:20;18.11;75.59
80779;SHT30;70170;47.856;10.956;2023-07-31T07:26:45;18.38;75.05
80779;SHT30;70170;47.856;10.956;2023-07-31T07:29:10;18.63;74.10
80779;SHT30;70170;47.856;10.956;2023-07-31T07:31:36;19.07;73.37
80779;SHT30;70170;47.856;10.956;2023-07-31T07:34:01;19.65;71.40
80779;SHT30;70170;47.856;10.956;2023-07-31T07:36:27;19.96;70.46
80779;SHT30;70170;47.856;10.956;2023-07-31T07:38:53;19.90;70.51
80779;SHT30;70170;47.856;10.956;2023-07-31T07:41:18;20.06;70.20
80779;SHT30;70170;47.856;10.956;2023-07-31T07:43:43;19.96;68.06
80779;SHT30;70170;47.856;10.956;2023-07-31T07:46:09;19.58;68.53
80779;SHT30;70170;47.856;10.956;2023-07-31T07:48:34;19.48;68.58
80779;SHT30;70170;47.856;10.956;2023-07-31T07:50:59;19.86;68.51
80779;SHT30;70170;47.856;10.956;2023-07-31T07:53:24;20.01;68.23
80779;SHT30;70170;47.856;10.956;2023-07-31T07:55:50;20.20;67.57
80779;SHT30;70170;47.856;10.956;2023-07-31T07:58:15;20.21;68.59
80779;SHT30;70170;47.856;10.956;2023-07-31T08:00:40;20.17;67.19
80779;SHT30;70170;47.856;10.956;2023-07-31T08:03:06;20.22;67.81
80779;SHT30;70170;47.856;10.956;2023-07-31T08:05:31;20.44;67.34
80779;SHT30;70170;47.856;10.956;2023-07-31T08:07:59;20.13;67.76
80779;SHT30;70170;47.856;10.956;2023-07-31T08:10:24;20.20;68.16
80779;SHT30;70170;47.856;10.956;2023-07-31T08:12:49;20.48;67.90
80779;SHT30;70170;47.856;10.956;2023-07-31T08:15:15;20.39;66.91
80779;SHT30;70170;47.856;10.956;2023-07-31T08:17:40;20.44;66.67
80779;SHT30;70170;47.856;10.956;2023-07-31T08:20:06;20.71;66.25
80779;SHT30;70170;47.856;10.956;2023-07-31T08:22:31;20.45;67.09
80779;SHT30;70170;47.856;10.956;2023-07-31T08:24:57;20.24;66.92
80779;SHT30;70170;47.856;10.956;2023-07-31T08:27:22;20.77;67.35
80779;SHT30;70170;47.856;10.956;2023-07-31T08:29:47;20.94;66.36
80779;SHT30;70170;47.856;10.956;2023-07-31T08:32:13;21.04;65.31
80779;SHT30;70170;47.856;10.956;2023-07-31T08:34:38;21.44;64.13
80779;SHT30;70170;47.856;10.956;2023-07-31T08:37:03;22.09;62.78
80779;SHT30;70170;47.856;10.956;2023-07-31T08:39:29;21.73;62.77
80779;SHT30;70170;47.856;10.956;2023-07-31T08:41:58;21.76;63.76
80779;SHT30;70170;47.856;10.956;2023-07-31T08:44:24;21.27;65.63
80779;SHT30;70170;47.856;10.956;2023-07-31T08:46:50;21.06;64.65
80779;SHT30;70170;47.856;10.956;2023-07-31T08:49:17;21.24;65.47
80779;SHT30;70170;47.856;10.956;2023-07-31T08:51:46;20.92;66.00
80779;SHT30;70170;47.856;10.956;2023-07-31T08:54:11;20.90;66.20
80779;SHT30;70170;47.856;10.956;2023-07-31T08:56:37;21.07;65.83
80779;SHT30;70170;47.856;10.956;2023-07-31T08:59:03;21.27;65.08
80779;SHT30;70170;47.856;10.956;2023-07-31T09:01:30;21.45;65.01
80779;SHT30;70170;47.856;10.956;2023-07-31T09:03:58;21.75;64.21
80779;SHT30;70170;47.856;10.956;2023-07-31T09:06:25;21.96;63.02
80779;SHT30;70170;47.856;10.956;2023-07-31T09:08:51;21.66;63.49
80779;SHT30;70170;47.856;10.956;2023-07-31T09:11:17;21.99;63.53
80779;SHT30;70170;47.856;10.956;2023-07-31T09:13:44;21.78;62.99
80779;SHT30;70170;47.856;10.956;2023-07-31T09:16:10;21.89;62.61
80779;SHT30;70170;47.856;10.956;2023-07-31T09:18:53;21.85;63.45
80779;SHT30;70170;47.856;10.956;2023-07-31T09:21:19;21.94;63.78
80779;SHT30;70170;47.856;10.956;2023-07-31T09:23:46;22.06;62.71
80779;SHT30;70170;47.856;10.956;2023-07-31T09:26:35;22.41;61.89
80779;SHT30;70170;47.856;10.956;2023-07-31T09:29:04;22.96;62.57
80779;SHT30;70170;47.856;10.956;2023-07-31T09:31:47;22.76;61.10
80779;SHT30;70170;47.856;10.956;2023-07-31T09:34:12;23.03;63.00
80779;SHT30;70170;47.856;10.956;2023-07-31T09:36:47;23.59;61.62
80779;SHT30;70170;47.856;10.956;2023-07-31T09:39:14;23.51;59.12
80779;SHT30;70170;47.856;10.956;2023-07-31T09:41:43;23.81;59.42
80779;SHT30;70170;47.856;10.956;2023-07-31T09:44:09;23.26;59.89
80779;SHT30;70170;47.856;10.956;2023-07-31T09:46:35;23.99;58.44
80779;SHT30;70170;47.856;10.956;2023-07-31T09:49:04;23.89;59.99
80779;SHT30;70170;47.856;10.956;2023-07-31T09:51:30;23.92;58.71
80779;SHT30;70170;47.856;10.956;2023-07-31T09:53:56;24.51;59.21
80779;SHT30;70170;47.856;10.956;2023-07-31T09:56:23;25.27;56.53
80779;SHT30;70170;47.856;10.956;2023-07-31T09:58:49;25.47;55.21
80779;SHT30;70170;47.856;10.956;2023-07-31T10:01:15;25.05;55.75
80779;SHT30;70170;47.856;10.956;2023-07-31T10:03:40;24.83;56.86
80779;SHT30;70170;47.856;10.956;2023-07-31T10:06:09;24.95;55.39
80779;SHT30;70170;47.856;10.956;2023-07-31T10:08:36;25.40;56.00
80779;SHT30;70170;47.856;10.956;2023-07-31T10:11:02;25.58;55.21
80779;SHT30;70170;47.856;10.956;2023-07-31T10:13:30;25.36;55.76
80779;SHT30;70170;47.856;10.956;2023-07-31T10:15:58;25.03;56.07
80779;SHT30;70170;47.856;10.956;2023-07-31T10:18:25;25.57;56.60
80779;SHT30;70170;47.856;10.956;2023-07-31T10:20:51;25.01;55.24
80779;SHT30;70170;47.856;10.956;2023-07-31T10:23:17;24.14;56.95
80779;SHT30;70170;47.856;10.956;2023-07-31T10:25:43;24.76;56.25
80779;SHT30;70170;47.856;10.956;2023-07-31T10:28:09;25.08;55.43
80779;SHT30;70170;47.856;10.956;2023-07-31T10:30:37;25.08;55.13
80779;SHT30;70170;47.856;10.956;2023-07-31T10:33:04;24.75;53.73
80779;SHT30;70170;47.856;10.956;2023-07-31T10:35:30;24.98;52.26
80779;SHT30;70170;47.856;10.956;2023-07-31T10:38:09;25.01;53.13
80779;SHT30;70170;47.856;10.956;2023-07-31T10:40:34;24.92;54.04
80779;SHT30;70170;47.856;10.956;2023-07-31T10:43:01;24.19;55.33
80779;SHT30;70170;47.856;10.956;2023-07-31T10:48:19;25.88;52.13
80779;SHT30;70170;47.856;10.956;2023-07-31T10:50:48;26.29;53.16
80779;SHT30;70170;47.856;10.956;2023-07-31T10:53:40;26.16;54.82
80779;SHT30;70170;47.856;10.956;2023-07-31T10:56:09;25.33;54.65
80779;SHT30;70170;47.856;10.956;2023-07-31T10:58:36;24.44;54.86
80779;SHT30;70170;47.856;10.956;2023-07-31T11:01:03;24.74;54.29
80779;SHT30;70170;47.856;10.956;2023-07-31T11:03:43;24.55;55.21
80779;SHT30;70170;47.856;10.956;2023-07-31T11:06:09;25.24;54.37
80779;SHT30;70170;47.856;10.956;2023-07-31T11:08:36;25.12;54.09
80779;SHT30;70170;47.856;10.956;2023-07-31T11:11:08;25.48;52.55
80779;SHT30;70170;47.856;10.956;2023-07-31T11:16:04;25.64;54.60
80779;SHT30;70170;47.856;10.956;2023-07-31T11:18:29;25.60;53.52
80779;SHT30;70170;47.856;10.956;2023-07-31T11:20:55;25.99;53.08
80779;SHT30;70170;47.856;10.956;2023-07-31T11:23:21;26.20;52.09
80779;SHT30;70170;47.856;10.956;2023-07-31T11:25:47;26.35;52.02
80779;SHT30;70170;47.856;10.956;2023-07-31T11:28:14;26.06;52.28
80779;SHT30;70170;47.856;10.956;2023-07-31T11:30:41;26.68;50.36
80779;SHT30;70170;47.856;10.956;2023-07-31T11:33:08;26.06;49.84
80779;SHT30;70170;47.856;10.956;2023-07-31T11:35:36;26.01;49.31
80779;SHT30;70170;47.856;10.956;2023-07-31T11:38:02;26.30;51.17
80779;SHT30;70170;47.856;10.956;2023-07-31T11:40:28;25.61;48.52
80779;SHT30;70170;47.856;10.956;2023-07-31T11:43:04;25.44;49.80
80779;SHT30;70170;47.856;10.956;2023-07-31T11:45:30;25.84;49.22
80779;SHT30;70170;47.856;10.956;2023-07-31T11:47:56;26.03;50.55
80779;SHT30;70170;47.856;10.956;2023-07-31T11:50:23;25.75;50.01
80779;SHT30;70170;47.856;10.956;2023-07-31T11:52:59;26.02;50.42
80779;SHT30;70170;47.856;10.956;2023-07-31T11:55:25;25.84;50.86
80779;SHT30;70170;47.856;10.956;2023-07-31T11:57:51;25.84;49.96
80779;SHT30;70170;47.856;10.956;2023-07-31T12:00:18;25.48;52.46
80779;SHT30;70170;47.856;10.956;2023-07-31T12:02:43;25.65;49.16
80779;SHT30;70170;47.856;10.956;2023-07-31T12:05:12;26.60;48.83
80779;SHT30;70170;47.856;10.956;2023-07-31T12:10:09;25.75;48.78
80779;SHT30;70170;47.856;10.956;2023-07-31T12:12:34;26.06;49.60
80779;SHT30;70170;47.856;10.956;2023-07-31T12:14:59;26.75;47.06
80779;SHT30;70170;47.856;10.956;2023-07-31T12:17:25;27.09;48.38
80779;SHT30;70170;47.856;10.956;2023-07-31T12:19:50;26.95;47.06
80779;SHT30;70170;47.856;10.956;2023-07-31T12:22:16;26.57;45.80
80779;SHT30;70170;47.856;10.956;2023-07-31T12:24:44;26.36;47.29
80779;SHT30;70170;47.856;10.956;2023-07-31T12:27:11;26.71;47.94
80779;SHT30;70170;47.856;10.956;2023-07-31T12:29:38;26.18;45.60
80779;SHT30;70170;47.856;10.956;2023-07-31T12:32:03;25.65;45.17
80779;SHT30;70170;47.856;10.956;2023-07-31T12:34:29;25.72;46.56
80779;SHT30;70170;47.856;10.956;2023-07-31T12:36:54;25.30;45.24
80779;SHT30;70170;47.856;10.956;2023-07-31T12:39:19;25.26;44.12
80779;SHT30;70170;47.856;10.956;2023-07-31T12:41:45;25.02;45.56
80779;SHT30;70170;47.856;10.956;2023-07-31T12:44:11;25.09;44.63
80779;SHT30;70170;47.856;10.956;2023-07-31T12:46:36;25.50;43.55
80779;SHT30;70170;47.856;10.956;2023-07-31T12:49:02;26.27;42.33
80779;SHT30;70170;47.856;10.956;2023-07-31T12:51:27;26.94;42.39
80779;SHT30;70170;47.856;10.956;2023-07-31T12:53:52;27.42;43.12
80779;SHT30;70170;47.856;10.956;2023-07-31T12:56:18;27.60;41.21
80779;SHT30;70170;47.856;10.956;2023-07-31T12:58:43;27.37;41.10
80779;SHT30;70170;47.856;10.956;2023-07-31T13:01:08;27.30;42.52
80779;SHT30;70170;47.856;10.956;2023-07-31T13:03:34;26.63;43.26
80779;SHT30;70170;47.856;10.956;2023-07-31T13:05:59;25.64;44.89
80779;SHT30;70170;47.856;10.956;2023-07-31T13:08:24;25.37;45.78
80779;SHT30;70170;47.856;10.956;2023-07-31T13:10:50;25.53;48.51
80779;SHT30;70170;47.856;10.956;2023-07-31T13:13:15;25.63;49.23
80779;SHT30;70170;47.856;10.956;2023-07-31T13:15:41;26.03;47.18
80779;SHT30;70170;47.856;10.956;2023-07-31T13:18:06;25.98;47.27
80779;SHT30;70170;47.856;10.956;2023-07-31T13:20:31;25.40;48.95
80779;SHT30;70170;47.856;10.956;2023-07-31T13:22:56;24.98;48.89
80779;SHT30;70170;47.856;10.956;2023-07-31T13:25:22;25.80;50.53
80779;SHT30;70170;47.856;10.956;2023-07-31T13:27:47;26.46;48.98
80779;SHT30;70170;47.856;10.956;2023-07-31T13:30:12;26.39;49.50
80779;SHT30;70170;47.856;10.956;2023-07-31T13:32:38;26.41;49.58
80779;SHT30;70170;47.856;10.956;2023-07-31T13:35:07;25.92;48.82
80779;SHT30;70170;47.856;10.956;2023-07-31T13:37:33;25.38;50.45
80779;SHT30;70170;47.856;10.956;2023-07-31T13:39:58;24.86;51.11
80779;SHT30;70170;47.856;10.956;2023-07-31T13:42:23;24.57;48.03
80779;SHT30;70170;47.856;10.956;2023-07-31T13:44:49;24.95;48.19
80779;SHT30;70170;47.856;10.956;2023-07-31T13:47:14;26.50;46.33
80779;SHT30;70170;47.856;10.956;2023-07-31T13:49:40;27.18;44.72
80779;SHT30;70170;47.856;10.956;2023-07-31T13:52:06;27.15;45.02
80779;SHT30;70170;47.856;10.956;2023-07-31T13:54:32;27.74;45.38
80779;SHT30;70170;47.856;10.956;2023-07-31T13:56:57;27.60;44.14
80779;SHT30;70170;47.856;10.956;2023-07-31T13:59:22;28.19;45.95
80779;SHT30;70170;47.856;10.956;2023-07-31T14:01:48;28.08;44.77
80779;SHT30;70170;47.856;10.956;2023-07-31T14:04:14;27.16;41.72
80779;SHT30;70170;47.856;10.956;2023-07-31T14:06:40;26.65;44.00
80779;SHT30;70170;47.856;10.956;2023-07-31T14:09:05;26.12;44.29
80779;SHT30;70170;47.856;10.956;2023-07-31T14:11:31;25.82;43.89
80779;SHT30;70170;47.856;10.956;2023-07-31T14:13:57;26.12;45.03
80779;SHT30;70170;47.856;10.956;2023-07-31T14:16:23;26.20;42.94
80779;SHT30;70170;47.856;10.956;2023-07-31T14:18:48;26.20;42.95
80779;SHT30;70170;47.856;10.956;2023-07-31T14:21:13;26.29;44.02
80779;SHT30;70170;47.856;10.956;2023-07-31T14:23:39;26.33;44.18
80779;SHT30;70170;47.856;10.956;2023-07-31T14:26:05;27.35;43.24
80779;SHT30;70170;47.856;10.956;2023-07-31T14:28:30;27.85;43.82
80779;SHT30;70170;47.856;10.956;2023-07-31T14:30:55;27.26;42.88
80779;SHT30;70170;47.856;10.956;2023-07-31T14:33:21;27.51;43.13
80779;SHT30;70170;47.856;10.956;2023-07-31T14:35:46;27.90;43.24
80779;SHT30;70170;47.856;10.956;2023-07-31T14:38:11;27.82;43.44
80779;SHT30;70170;47.856;10.956;2023-07-31T14:40:37;28.00;44.06
80779;SHT30;70170;47.856;10.956;2023-07-31T14:43:03;28.19;43.96
80779;SHT30;70170;47.856;10.956;2023-07-31T14:45:29;28.67;43.17
80779;SHT30;70170;47.856;10.956;2023-07-31T14:47:54;28.05;42.89
80779;SHT30;70170;47.856;10.956;2023-07-31T14:50:20;28.13;43.20
80779;SHT30;70170;47.856;10.956;2023-07-31T14:52:47;27.25;44.11
80779;SHT30;70170;47.856;10.956;2023-07-31T14:55:12;26.74;45.28
80779;SHT30;70170;47.856;10.956;2023-07-31T14:57:37;26.01;46.15
80779;SHT30;70170;47.856;10.956;2023-07-31T15:00:03;25.44;48.26
80779;SHT30;70170;47.856;10.956;2023-07-31T15:02:33;24.51;48.95
80779;SHT30;70170;47.856;10.956;2023-07-31T15:04:58;24.51;48.99
80779;SHT30;70170;47.856;10.956;2023-07-31T15:07:24;24.31;49.32
80779;SHT30;70170;47.856;10.956;2023-07-31T15:09:49;24.02;49.91
80779;SHT30;70170;47.856;10.956;2023-07-31T15:12:14;23.89;49.86
80779;SHT30;70170;47.856;10.956;2023-07-31T15:14:40;23.95;50.38
80779;SHT30;70170;47.856;10.956;2023-07-31T15:17:05;23.86;51.06
80779;SHT30;70170;47.856;10.956;2023-07-31T15:19:30;23.65;51.01
80779;SHT30;70170;47.856;10.956;2023-07-31T15:21:59;23.66;52.11